createdAt,value
2023-04-18T00:00:10.495Z,47.25
2023-04-18T00:02:44.297Z,47.39
2023-04-18T00:05:12.928Z,47.57
2023-04-18T00:07:41.814Z,47.50
2023-04-18T00:10:10.894Z,47.54
2023-04-18T00:12:39.687Z,47.54
2023-04-18T00:15:11.953Z,47.66
2023-04-18T00:17:41.944Z,47.80
2023-04-18T00:20:11.457Z,47.84
2023-04-18T00:22:45.312Z,48.05
2023-04-18T00:25:13.654Z,48.12
2023-04-18T00:27:41.904Z,48.29
2023-04-18T00:30:10.997Z,48.35
2023-04-18T00:32:39.722Z,48.53
2023-04-18T00:35:08.249Z,48.78
2023-04-18T00:37:37.325Z,48.90
2023-04-18T00:40:06.906Z,48.90
2023-04-18T00:42:35.712Z,49.11
2023-04-18T00:45:04.197Z,49.30
2023-04-18T00:47:33.410Z,49.40
2023-04-18T00:50:01.661Z,49.72
2023-04-18T00:52:30.184Z,49.78
2023-04-18T00:54:58.531Z,49.92
2023-04-18T00:57:26.894Z,49.87
2023-04-18T00:59:55.953Z,49.99
2023-04-18T01:02:26.397Z,50.02
2023-04-18T01:04:56.509Z,50.27
2023-04-18T01:07:26.597Z,50.31
2023-04-18T01:09:58.894Z,50.33
2023-04-18T01:12:27.314Z,50.64
2023-04-18T01:14:55.791Z,50.68
2023-04-18T01:17:24.510Z,50.61
2023-04-18T01:19:52.846Z,50.96
2023-04-18T01:22:21.041Z,51.18
2023-04-18T01:24:49.293Z,51.08
2023-04-18T01:27:20.111Z,50.92
2023-04-18T01:29:48.233Z,51.12
2023-04-18T01:32:20.695Z,50.88
2023-04-18T01:34:49.197Z,50.87
2023-04-18T01:37:17.788Z,50.86
2023-04-18T01:39:46.035Z,50.59
2023-04-18T01:42:14.314Z,50.79
2023-04-18T01:44:43.264Z,50.49
2023-04-18T01:47:11.580Z,50.57
2023-04-18T01:49:42.969Z,50.56
2023-04-18T01:52:14.375Z,50.58
2023-04-18T01:54:43.773Z,50.66
2023-04-18T01:57:12.028Z,50.64
2023-04-18T01:59:40.248Z,50.53
2023-04-18T02:02:08.655Z,50.27
2023-04-18T02:04:37.445Z,50.04
2023-04-18T02:07:05.749Z,50.18
2023-04-18T02:09:33.996Z,50.51
2023-04-18T02:12:02.810Z,50.36
2023-04-18T02:14:32.463Z,50.62
2023-04-18T02:17:02.002Z,50.65
2023-04-18T02:19:30.890Z,50.95
2023-04-18T02:21:59.160Z,51.36
2023-04-18T02:24:27.548Z,51.75
2023-04-18T02:26:55.983Z,52.02
2023-04-18T02:29:24.207Z,52.50
2023-04-18T02:31:52.577Z,52.83
2023-04-18T02:34:21.008Z,53.10
2023-04-18T02:36:49.933Z,53.07
2023-04-18T02:39:18.241Z,53.27
2023-04-18T02:41:46.453Z,53.32
2023-04-18T02:44:17.573Z,53.89
2023-04-18T02:46:45.806Z,54.19
2023-04-18T02:49:14.442Z,54.39
2023-04-18T02:51:43.268Z,54.84
2023-04-18T02:54:11.665Z,54.99
2023-04-18T02:56:54.360Z,55.22
2023-04-18T02:59:35.262Z,54.69
2023-04-18T03:02:17.277Z,54.46
2023-04-18T03:04:50.738Z,54.64
2023-04-18T03:07:19.211Z,54.69
2023-04-18T03:09:48.409Z,54.55
2023-04-18T03:12:20.185Z,54.55
2023-04-18T03:14:48.692Z,53.91
2023-04-18T03:17:17.386Z,53.67
2023-04-18T03:19:48.813Z,53.71
2023-04-18T03:22:21.464Z,53.70
2023-04-18T03:25:00.849Z,53.39
2023-04-18T03:27:51.697Z,53.41
2023-04-18T03:30:21.422Z,53.31
2023-04-18T03:33:03.088Z,53.45
2023-04-18T03:35:33.642Z,53.08
2023-04-18T03:38:01.906Z,53.04
2023-04-18T03:40:31.963Z,52.97
2023-04-18T03:43:04.927Z,53.07
2023-04-18T03:45:33.402Z,53.13
2023-04-18T03:48:01.714Z,53.28
2023-04-18T03:50:42.451Z,53.49
2023-04-18T03:56:11.359Z,53.57
2023-04-18T03:59:06.741Z,53.36
2023-04-18T04:01:35.379Z,53.32
2023-04-18T04:04:04.471Z,53.18
2023-04-18T04:06:33.464Z,52.83
2023-04-18T04:09:02.534Z,52.66
2023-04-18T04:11:31.434Z,52.49
2023-04-18T04:13:59.706Z,52.73
2023-04-18T04:16:33.545Z,52.45
2023-04-18T04:19:04.894Z,51.96
2023-04-18T04:21:39.136Z,51.51
2023-04-18T04:24:09.735Z,51.72
2023-04-18T04:26:42.883Z,51.49
2023-04-18T04:29:16.659Z,51.94
2023-04-18T04:31:46.236Z,51.58
2023-04-18T04:34:17.112Z,51.37
2023-04-18T04:36:45.557Z,50.72
2023-04-18T04:39:15.888Z,50.57
2023-04-18T04:41:55.552Z,49.27
2023-04-18T04:44:27.130Z,48.51
2023-04-18T04:46:56.234Z,47.72
2023-04-18T04:49:27.810Z,47.14
2023-04-18T04:51:56.208Z,45.85
2023-04-18T04:55:03.498Z,44.90
2023-04-18T04:57:32.274Z,43.82
2023-04-18T05:00:00.756Z,41.76
2023-04-18T05:02:30.261Z,40.77
2023-04-18T05:04:59.795Z,41.08
2023-04-18T05:07:28.095Z,41.58
2023-04-18T05:09:56.246Z,41.84
2023-04-18T05:12:24.488Z,42.25
2023-04-18T05:14:52.686Z,42.35
2023-04-18T05:17:20.981Z,42.59
2023-04-18T05:19:49.273Z,42.82
2023-04-18T05:22:17.519Z,43.05
2023-04-18T05:24:55.370Z,43.07
2023-04-18T05:27:23.679Z,43.36
2023-04-18T05:29:51.942Z,43.30
2023-04-18T05:32:20.202Z,43.20
2023-04-18T05:34:48.802Z,42.61
2023-04-18T05:37:17.078Z,41.94
2023-04-18T05:39:47.887Z,41.51
2023-04-18T05:42:24.089Z,40.54
2023-04-18T05:44:54.718Z,39.44
2023-04-18T05:47:24.306Z,38.85
2023-04-18T05:49:52.781Z,37.92
2023-04-18T05:52:21.097Z,37.33
2023-04-18T05:54:49.393Z,37.18
2023-04-18T05:57:17.611Z,36.57
2023-04-18T05:59:45.930Z,36.56
2023-04-18T06:02:14.465Z,37.31
2023-04-18T06:04:43.321Z,37.88
2023-04-18T06:07:13.016Z,38.38
2023-04-18T06:09:42.281Z,38.91
2023-04-18T06:12:10.875Z,39.32
2023-04-18T06:14:39.221Z,39.37
2023-04-18T06:17:07.576Z,39.57
2023-04-18T06:19:36.456Z,39.93
2023-04-18T06:22:04.758Z,39.94
2023-04-18T06:24:33.781Z,40.34
2023-04-18T06:27:03.375Z,40.00
2023-04-18T06:29:36.238Z,39.91
2023-04-18T06:32:06.364Z,39.37
2023-04-18T06:34:34.709Z,38.69
2023-04-18T06:37:02.975Z,38.56
2023-04-18T06:39:31.490Z,38.37
2023-04-18T06:42:00.357Z,38.13
2023-04-18T06:44:32.189Z,37.70
2023-04-18T06:47:00.618Z,38.05
2023-04-18T06:49:29.231Z,37.45
2023-04-18T06:51:57.605Z,36.60
2023-04-18T06:54:26.180Z,36.37
2023-04-18T06:56:54.520Z,35.89
2023-04-18T06:59:23.603Z,35.30
2023-04-18T07:01:51.954Z,34.93
2023-04-18T07:04:20.467Z,34.57
2023-04-18T07:06:49.020Z,34.49
2023-04-18T07:09:17.264Z,34.38
2023-04-18T07:11:45.563Z,35.00
2023-04-18T07:14:14.346Z,35.23
2023-04-18T07:16:43.484Z,36.10
2023-04-18T07:19:11.768Z,36.55
2023-04-18T07:21:40.877Z,36.68
2023-04-18T07:24:10.269Z,36.76
2023-04-18T07:26:38.709Z,36.36
2023-04-18T07:29:06.860Z,36.06
2023-04-18T07:31:35.838Z,36.03
2023-04-18T07:34:04.881Z,35.70
2023-04-18T07:36:34.005Z,35.34
2023-04-18T07:39:02.210Z,34.85
2023-04-18T07:41:31.231Z,34.09
2023-04-18T07:44:03.151Z,33.48
2023-04-18T07:46:32.707Z,33.00
2023-04-18T07:49:02.639Z,32.36
2023-04-18T07:51:35.254Z,31.77
2023-04-18T07:54:03.719Z,31.44
2023-04-18T07:56:32.673Z,31.16
2023-04-18T07:59:01.875Z,31.35
2023-04-18T08:01:31.822Z,31.44
2023-04-18T08:04:02.321Z,31.17
2023-04-18T08:06:31.569Z,31.44
2023-04-18T08:09:03.964Z,31.14
2023-04-18T08:11:35.794Z,30.80
2023-04-18T08:14:04.093Z,30.64
2023-04-18T08:16:33.765Z,30.12
2023-04-18T08:19:02.034Z,30.56
2023-04-18T08:21:31.614Z,29.93
2023-04-18T08:24:00.053Z,29.79
2023-04-18T08:26:28.371Z,30.05
2023-04-18T08:28:56.982Z,30.10
2023-04-18T08:31:26.137Z,29.87
2023-04-18T08:33:54.400Z,29.67
2023-04-18T08:36:22.729Z,30.17
2023-04-18T08:38:51.080Z,30.32
2023-04-18T08:41:21.737Z,30.66
2023-04-18T08:43:50.180Z,30.63
2023-04-18T08:46:19.548Z,30.04
2023-04-18T08:48:49.965Z,29.95
2023-04-18T08:51:18.789Z,29.34
2023-04-18T08:53:48.823Z,29.10
2023-04-18T08:56:17.261Z,29.24
2023-04-18T08:58:45.660Z,29.34
2023-04-18T09:01:15.288Z,29.08
2023-04-18T09:03:44.367Z,28.94
2023-04-18T09:06:19.258Z,29.29
2023-04-18T09:08:59.308Z,29.60
2023-04-18T09:11:29.505Z,29.49
2023-04-18T09:13:59.306Z,29.86
2023-04-18T09:16:28.080Z,30.14
2023-04-18T09:19:11.270Z,29.68
2023-04-18T09:21:41.298Z,28.91
2023-04-18T09:24:30.664Z,28.90
2023-04-18T09:27:00.331Z,29.16
2023-04-18T09:29:43.633Z,28.90
2023-04-18T09:32:33.403Z,28.94
2023-04-18T09:35:04.751Z,29.49
2023-04-18T09:37:33.426Z,28.75
2023-04-18T09:40:02.411Z,27.94
2023-04-18T09:42:36.059Z,27.94
2023-04-18T09:45:06.280Z,27.92
2023-04-18T09:47:36.621Z,28.16
2023-04-18T09:50:09.361Z,28.88
2023-04-18T09:52:42.078Z,28.47
2023-04-18T09:55:20.669Z,29.39
2023-04-18T09:57:49.538Z,28.98
2023-04-18T10:00:26.724Z,29.13
2023-04-18T10:03:08.364Z,29.60
2023-04-18T10:05:39.522Z,29.56
2023-04-18T10:08:08.609Z,29.99
2023-04-18T10:10:40.888Z,30.49
2023-04-18T10:13:11.286Z,30.78
2023-04-18T10:15:41.754Z,30.66
2023-04-18T10:18:15.233Z,30.99
2023-04-18T10:20:44.680Z,31.22
2023-04-18T10:23:31.409Z,31.15
2023-04-18T10:25:59.849Z,31.16
2023-04-18T10:28:28.379Z,30.92
2023-04-18T10:31:03.910Z,31.08
2023-04-18T10:33:42.796Z,31.25
2023-04-18T10:36:12.555Z,31.19
2023-04-18T10:38:45.536Z,31.78
2023-04-18T10:41:16.055Z,31.86
2023-04-18T10:44:09.776Z,32.22
2023-04-18T10:46:58.586Z,32.64
2023-04-18T10:49:30.344Z,33.24
2023-04-18T10:52:01.480Z,34.01
2023-04-18T10:54:31.080Z,34.73
2023-04-18T10:57:01.928Z,35.22
2023-04-18T10:59:33.250Z,35.60
2023-04-18T11:05:32.044Z,36.75
2023-04-18T11:08:00.355Z,36.99
2023-04-18T11:10:29.680Z,37.29
2023-04-18T11:13:04.564Z,37.45
2023-04-18T11:15:32.953Z,37.70
2023-04-18T11:18:05.047Z,38.02
2023-04-18T11:20:40.052Z,38.52
2023-04-18T11:23:24.237Z,38.58
2023-04-18T11:25:54.587Z,38.70
2023-04-18T11:28:25.229Z,38.62
2023-04-18T11:30:57.847Z,38.57
2023-04-18T11:33:32.277Z,38.29
2023-04-18T11:36:02.512Z,38.10
2023-04-18T11:38:31.493Z,37.97
2023-04-18T11:41:02.897Z,37.61
2023-04-18T11:43:33.927Z,37.93
2023-04-18T11:46:03.227Z,37.73
2023-04-18T11:48:37.364Z,37.83
2023-04-18T11:51:07.213Z,37.51
2023-04-18T11:53:36.315Z,37.74
2023-04-18T11:56:06.579Z,38.28
2023-04-18T11:58:36.617Z,38.06
2023-04-18T12:01:24.123Z,37.49
2023-04-18T12:04:04.266Z,37.23
2023-04-18T12:06:50.399Z,37.46
2023-04-18T12:09:21.284Z,37.67
2023-04-18T12:12:05.990Z,37.74
2023-04-18T12:14:38.565Z,37.94
2023-04-18T12:17:07.253Z,37.59
2023-04-18T12:19:36.209Z,37.88
2023-04-18T12:22:08.366Z,37.99
2023-04-18T12:24:38.106Z,38.23
2023-04-18T12:27:06.688Z,38.40
2023-04-18T12:29:37.225Z,39.19
2023-04-18T12:32:20.503Z,39.59
2023-04-18T12:34:52.588Z,40.19
2023-04-18T12:37:28.941Z,40.32
2023-04-18T12:40:02.983Z,40.04
2023-04-18T12:42:34.138Z,40.46
2023-04-18T12:45:07.733Z,41.10
2023-04-18T12:47:38.186Z,40.79
2023-04-18T12:50:11.657Z,40.39
2023-04-18T12:52:40.991Z,40.39
2023-04-18T12:55:10.418Z,40.32
2023-04-18T12:57:39.089Z,40.42
2023-04-18T13:00:11.640Z,40.65
2023-04-18T13:02:43.079Z,40.37
2023-04-18T13:05:13.539Z,40.54
2023-04-18T13:07:42.681Z,40.88
2023-04-18T13:10:12.777Z,41.26
2023-04-18T13:12:42.268Z,41.52
2023-04-18T13:15:10.986Z,41.54
2023-04-18T13:17:40.263Z,41.96
2023-04-18T13:20:13.165Z,41.78
2023-04-18T13:22:41.788Z,42.22
2023-04-18T13:25:13.593Z,42.29
2023-04-18T13:27:42.214Z,42.93
2023-04-18T13:30:11.180Z,43.07
2023-04-18T13:32:41.613Z,43.46
2023-04-18T13:35:13.072Z,43.58
2023-04-18T13:37:41.914Z,43.68
2023-04-18T13:40:11.295Z,44.04
2023-04-18T13:42:40.105Z,44.19
2023-04-18T13:45:08.801Z,44.33
2023-04-18T13:47:37.862Z,44.24
2023-04-18T13:50:07.560Z,44.38
2023-04-18T13:52:36.404Z,44.09
2023-04-18T13:55:05.293Z,44.09
2023-04-18T13:57:33.763Z,44.29
2023-04-18T14:00:02.062Z,44.38
2023-04-18T14:02:41.664Z,44.76
2023-04-18T14:05:10.778Z,44.60
2023-04-18T14:07:39.078Z,44.40
2023-04-18T14:10:08.238Z,44.63
2023-04-18T14:12:36.981Z,44.89
2023-04-18T14:15:05.748Z,45.16
2023-04-18T14:17:35.067Z,45.35
2023-04-18T14:20:05.138Z,45.22
2023-04-18T14:22:33.581Z,45.23
2023-04-18T14:25:02.821Z,45.30
2023-04-18T14:27:33.289Z,45.36
2023-04-18T14:30:01.479Z,45.59
2023-04-18T14:32:32.132Z,45.79
2023-04-18T14:35:00.448Z,46.06
2023-04-18T14:37:29.715Z,46.39
2023-04-18T14:39:58.095Z,46.53
2023-04-18T14:42:26.324Z,46.75
2023-04-18T14:44:54.629Z,47.15
2023-04-18T14:47:24.400Z,47.18
2023-04-18T14:49:52.880Z,47.09
2023-04-18T14:52:21.289Z,46.93
2023-04-18T14:54:50.575Z,47.12
2023-04-18T14:57:19.067Z,47.24
2023-04-18T14:59:47.438Z,47.20
2023-04-18T15:02:16.066Z,46.66
2023-04-18T15:08:16.354Z,47.00
2023-04-18T15:10:46.642Z,47.11
2023-04-18T15:13:16.021Z,47.42
2023-04-18T15:15:54.083Z,47.66
2023-04-18T15:18:24.710Z,47.75
2023-04-18T15:20:54.096Z,47.99
2023-04-18T15:23:22.466Z,47.81
2023-04-18T15:25:52.155Z,47.89
2023-04-18T15:28:20.472Z,48.20
2023-04-18T15:30:48.796Z,48.60
2023-04-18T15:33:19.323Z,48.60
2023-04-18T15:35:47.775Z,48.89
2023-04-18T15:38:16.077Z,49.23
2023-04-18T15:40:44.902Z,49.75
2023-04-18T15:43:14.068Z,50.22
2023-04-18T15:45:44.517Z,50.62
2023-04-18T15:48:13.387Z,50.86
2023-04-18T15:50:42.630Z,51.10
2023-04-18T15:53:10.906Z,51.48
2023-04-18T15:55:39.624Z,51.74
2023-04-18T15:58:07.948Z,51.79
2023-04-18T16:00:36.243Z,51.93
2023-04-18T16:03:05.879Z,52.01
2023-04-18T16:05:36.032Z,52.18
2023-04-18T16:08:04.375Z,52.33
2023-04-18T16:10:32.902Z,52.74
2023-04-18T16:13:04.984Z,52.83
2023-04-18T16:15:35.682Z,52.72
2023-04-18T16:18:06.157Z,52.96
2023-04-18T16:20:35.230Z,53.00
2023-04-18T16:23:05.677Z,53.28
2023-04-18T16:25:38.009Z,53.43
2023-04-18T16:28:08.401Z,53.66
2023-04-18T16:30:37.732Z,54.13
2023-04-18T16:33:06.737Z,54.31
2023-04-18T16:35:35.562Z,54.51
2023-04-18T16:38:04.015Z,54.73
2023-04-18T16:40:35.273Z,54.81
2023-04-18T16:43:03.630Z,55.19
2023-04-18T16:45:33.280Z,55.33
2023-04-18T16:48:01.781Z,55.52
2023-04-18T16:50:31.687Z,55.91
2023-04-18T16:53:01.851Z,56.50
2023-04-18T16:55:30.507Z,56.48
2023-04-18T16:58:01.417Z,56.63
2023-04-18T17:00:30.201Z,56.91
2023-04-18T17:03:00.691Z,57.08
2023-04-18T17:05:29.786Z,57.35
2023-04-18T17:07:58.405Z,57.44
2023-04-18T17:17:28.116Z,59.60
2023-04-18T17:19:59.988Z,60.94
2023-04-18T17:22:29.045Z,61.93
2023-04-18T17:24:58.004Z,62.31
2023-04-18T17:27:24.929Z,62.74
2023-04-18T17:29:55.332Z,62.82
2023-04-18T17:32:57.947Z,62.10
2023-04-18T17:35:27.950Z,61.89
2023-04-18T17:37:57.614Z,62.95
2023-04-18T17:41:10.347Z,65.01
2023-04-18T17:43:37.325Z,65.31
2023-04-18T17:46:10.238Z,64.93
2023-04-18T17:48:40.873Z,66.13
2023-04-18T17:51:10.237Z,66.97
2023-04-18T17:53:38.322Z,67.40
2023-04-18T17:56:05.941Z,67.88
2023-04-18T17:58:43.691Z,68.27
2023-04-18T18:01:22.014Z,68.56
2023-04-18T18:03:52.984Z,69.14
2023-04-18T18:06:24.704Z,69.74
2023-04-18T18:08:55.418Z,70.17
2023-04-18T18:11:24.551Z,71.06
2023-04-18T18:13:54.254Z,72.00
2023-04-18T18:16:22.695Z,72.83
2023-04-18T18:18:50.582Z,73.42
2023-04-18T18:21:17.674Z,73.42
2023-04-18T18:23:44.487Z,73.47
2023-04-18T18:26:11.982Z,73.89
2023-04-18T18:28:39.079Z,74.02
2023-04-18T18:31:06.549Z,74.34
2023-04-18T18:33:34.636Z,74.75
2023-04-18T18:36:02.420Z,75.29
2023-04-18T18:38:29.914Z,75.83
2023-04-18T18:40:57.346Z,76.37
2023-04-18T18:43:26.272Z,77.16
2023-04-18T18:45:53.395Z,77.94
2023-04-18T18:48:20.935Z,78.63
2023-04-18T18:50:48.084Z,79.06
2023-04-18T18:53:17.497Z,79.01
2023-04-18T18:55:47.768Z,78.96
2023-04-18T18:58:16.395Z,78.59
2023-04-18T19:00:46.581Z,78.25
2023-04-18T19:03:14.006Z,77.97
2023-04-18T19:05:41.373Z,77.68
2023-04-18T19:08:11.211Z,77.90
2023-04-18T19:10:38.418Z,78.35
2023-04-18T19:13:05.400Z,79.06
2023-04-18T19:15:33.304Z,79.58
2023-04-18T19:18:01.000Z,79.25
2023-04-18T19:20:29.304Z,79.17
2023-04-18T19:22:56.472Z,79.38
2023-04-18T19:25:23.493Z,79.61
2023-04-18T19:27:50.818Z,79.57
2023-04-18T19:30:20.231Z,79.45
2023-04-18T19:32:47.872Z,79.57
2023-04-18T19:35:14.684Z,80.10
2023-04-18T19:37:42.451Z,80.34
2023-04-18T19:40:09.991Z,80.40
2023-04-18T19:42:36.953Z,80.78
2023-04-18T19:45:05.375Z,81.28
2023-04-18T19:47:33.721Z,81.48
2023-04-18T19:50:03.246Z,81.49
2023-04-18T19:52:31.769Z,81.21
2023-04-18T19:55:00.581Z,81.00
2023-04-18T19:57:28.464Z,80.91
2023-04-18T19:59:56.062Z,80.82
2023-04-18T20:02:23.112Z,81.00
2023-04-18T20:04:50.406Z,81.46
2023-04-18T20:07:17.906Z,81.91
2023-04-18T20:09:45.035Z,82.32
2023-04-18T20:12:12.411Z,82.42
2023-04-18T20:14:39.326Z,82.44
2023-04-18T20:17:06.787Z,82.37
2023-04-18T20:19:33.601Z,82.36
2023-04-18T20:22:01.681Z,82.28
2023-04-18T20:24:35.239Z,82.43
2023-04-18T20:27:03.480Z,82.88
2023-04-18T20:29:30.808Z,83.47
2023-04-18T20:31:58.779Z,84.01
2023-04-18T20:34:25.643Z,84.41
2023-04-18T20:36:52.505Z,84.63
2023-04-18T20:39:19.449Z,84.91
2023-04-18T20:41:50.801Z,84.97
2023-04-18T20:44:21.215Z,85.09
2023-04-18T20:46:48.226Z,84.87
2023-04-18T20:49:15.578Z,84.85
2023-04-18T20:51:42.714Z,84.60
2023-04-18T20:54:09.607Z,84.69
2023-04-18T20:56:36.741Z,84.84
2023-04-18T20:59:04.343Z,85.12
2023-04-18T21:01:32.334Z,85.27
2023-04-18T21:03:59.477Z,85.21
2023-04-18T21:06:27.919Z,85.20
2023-04-18T21:08:54.945Z,85.26
2023-04-18T21:11:22.984Z,85.54
2023-04-18T21:13:51.403Z,85.86
2023-04-18T21:16:19.818Z,86.37
2023-04-18T21:18:46.993Z,86.86
2023-04-18T21:21:13.997Z,87.05
2023-04-18T21:23:42.117Z,87.02
2023-04-18T21:26:14.775Z,86.86
2023-04-18T21:29:04.135Z,86.66
2023-04-18T21:31:32.853Z,86.64
2023-04-18T21:34:02.508Z,86.86
2023-04-18T21:36:30.392Z,87.17
2023-04-18T21:39:01.564Z,87.65
2023-04-18T21:41:32.079Z,88.05
2023-04-18T21:43:59.100Z,87.79
2023-04-18T21:46:26.652Z,87.63
2023-04-18T21:48:53.654Z,87.73
2023-04-18T21:51:20.569Z,87.44
2023-04-18T21:53:47.578Z,87.35
2023-04-18T21:56:16.421Z,87.30
2023-04-18T21:58:43.280Z,87.42
2023-04-18T22:01:10.264Z,87.77
2023-04-18T22:03:37.350Z,88.19
2023-04-18T22:06:08.188Z,88.84
2023-04-18T22:08:35.546Z,89.12
2023-04-18T22:11:04.220Z,89.50
2023-04-18T22:13:33.980Z,89.87
2023-04-18T22:16:04.278Z,89.76
2023-04-18T22:18:34.170Z,89.33
2023-04-18T22:21:02.667Z,88.88
2023-04-18T22:23:29.941Z,88.40
2023-04-18T22:25:56.789Z,88.34
2023-04-18T22:28:24.044Z,88.58
2023-04-18T22:30:51.065Z,88.80
2023-04-18T22:33:17.938Z,89.15
2023-04-18T22:35:47.143Z,89.12
2023-04-18T22:38:14.299Z,89.21
2023-04-18T22:40:41.213Z,89.15
2023-04-18T22:43:08.077Z,88.97
2023-04-18T22:45:35.287Z,88.93
2023-04-18T22:48:02.224Z,88.79
2023-04-18T22:50:29.718Z,88.87
2023-04-18T22:52:56.832Z,88.91
2023-04-18T22:55:23.578Z,88.92
2023-04-18T22:57:50.561Z,89.00
2023-04-18T23:00:17.727Z,89.27
2023-04-18T23:02:44.920Z,89.39
2023-04-18T23:05:14.944Z,89.22
2023-04-18T23:07:42.927Z,89.07
2023-04-18T23:10:10.387Z,88.93
2023-04-18T23:12:38.064Z,88.93
2023-04-18T23:15:05.334Z,89.16
2023-04-18T23:17:34.353Z,89.26
2023-04-18T23:20:01.139Z,89.35
2023-04-18T23:22:28.498Z,89.66
2023-04-18T23:24:55.401Z,90.10
2023-04-18T23:27:22.311Z,90.21
2023-04-18T23:29:49.265Z,90.11
2023-04-18T23:32:16.256Z,89.89
2023-04-18T23:34:44.883Z,89.43
2023-04-18T23:37:12.852Z,89.43
2023-04-18T23:39:39.643Z,89.69
2023-04-18T23:42:06.542Z,89.75
2023-04-18T23:44:34.042Z,90.35
2023-04-18T23:47:00.968Z,90.70
2023-04-18T23:49:28.463Z,90.83
2023-04-18T23:51:55.323Z,90.95
2023-04-18T23:54:23.303Z,91.18
2023-04-18T23:56:50.072Z,90.98
2023-04-18T23:59:17.226Z,90.67
